createdAt,value
2022-11-26T00:02:23.049Z,101202.22
2022-11-26T00:04:54.314Z,101209.63
2022-11-26T00:07:26.858Z,101212.81
2022-11-26T00:10:17.927Z,101205.09
2022-11-26T00:12:47.430Z,101196.84
2022-11-26T00:15:30.064Z,101199.41
2022-11-26T00:18:00.807Z,101193.28
2022-11-26T00:20:32.244Z,101175.31
2022-11-26T00:23:04.886Z,101190.41
2022-11-26T00:25:41.322Z,101169.41
2022-11-26T00:28:27.631Z,101169.09
2022-11-26T00:30:58.273Z,101162.00
2022-11-26T00:33:27.973Z,101158.41
2022-11-26T00:36:00.534Z,101170.38
2022-11-26T00:38:32.208Z,101156.84
2022-11-26T00:41:12.108Z,101162.97
2022-11-26T00:43:53.502Z,101155.25
2022-11-26T00:46:23.924Z,101145.31
2022-11-26T00:48:53.691Z,101137.59
2022-11-26T00:51:59.249Z,101133.91
2022-11-26T00:54:28.643Z,101137.06
2022-11-26T00:57:00.609Z,101137.91
2022-11-26T00:59:34.820Z,101128.59
2022-11-26T01:02:04.566Z,101120.66
2022-11-26T01:04:33.624Z,101115.69
2022-11-26T01:07:02.505Z,101123.03
2022-11-26T01:09:31.188Z,101122.19
2022-11-26T01:12:02.331Z,101122.97
2022-11-26T01:14:33.988Z,101122.97
2022-11-26T01:17:02.726Z,101115.94
2022-11-26T01:19:36.842Z,101117.69
2022-11-26T01:22:05.430Z,101119.16
2022-11-26T01:24:34.092Z,101101.31
2022-11-26T01:27:05.147Z,101112.38
2022-11-26T01:29:33.623Z,101107.22
2022-11-26T01:32:02.026Z,101101.31
2022-11-26T01:34:37.085Z,101109.69
2022-11-26T01:37:14.590Z,101125.53
2022-11-26T01:39:44.058Z,101117.28
2022-11-26T01:42:28.339Z,101112.38
2022-11-26T01:44:59.813Z,101113.03
2022-11-26T01:47:32.391Z,101109.22
2022-11-26T01:50:41.283Z,101107.63
2022-11-26T01:53:15.073Z,101096.44
2022-11-26T01:55:48.163Z,101099.81
2022-11-26T01:58:22.611Z,101096.44
2022-11-26T02:00:53.430Z,101091.56
2022-11-26T02:03:30.051Z,101096.28
2022-11-26T02:06:15.001Z,101108.88
2022-11-26T02:08:45.229Z,101107.38
2022-11-26T02:11:18.512Z,101108.75
2022-11-26T02:14:00.292Z,101093.56
2022-11-26T02:16:47.659Z,101105.97
2022-11-26T02:19:49.602Z,101099.00
2022-11-26T02:22:40.598Z,101081.66
2022-11-26T02:25:21.792Z,101095.19
2022-11-26T02:28:22.194Z,101082.28
2022-11-26T02:31:00.861Z,101074.81
2022-11-26T02:33:35.236Z,101069.53
2022-11-26T02:36:11.100Z,101076.19
2022-11-26T02:38:41.490Z,101076.50
2022-11-26T02:41:11.394Z,101069.34
2022-11-26T02:43:41.279Z,101075.47
2022-11-26T02:46:20.444Z,101074.00
2022-11-26T02:48:52.944Z,101076.63
2022-11-26T02:51:33.399Z,101069.34
2022-11-26T02:54:12.850Z,101065.00
2022-11-26T02:56:43.349Z,101051.78
2022-11-26T02:59:15.328Z,101057.03
2022-11-26T03:02:05.146Z,101044.97
2022-11-26T03:04:40.836Z,101041.28
2022-11-26T03:07:13.362Z,101024.53
2022-11-26T03:09:50.059Z,101039.47
2022-11-26T03:12:19.560Z,101035.53
2022-11-26T03:14:48.503Z,101027.59
2022-11-26T03:17:18.945Z,101021.81
2022-11-26T03:19:50.752Z,101021.34
2022-11-26T03:22:20.438Z,101020.19
2022-11-26T03:24:49.267Z,101009.72
2022-11-26T03:27:18.243Z,100999.91
2022-11-26T03:29:49.506Z,101001.09
2022-11-26T03:32:25.135Z,100993.59
2022-11-26T03:34:54.973Z,100986.00
2022-11-26T03:37:24.519Z,100988.13
2022-11-26T03:39:55.745Z,100985.25
2022-11-26T03:42:25.420Z,100988.00
2022-11-26T03:44:54.015Z,100990.09
2022-11-26T03:47:23.349Z,100984.34
2022-11-26T03:49:53.877Z,100991.41
2022-11-26T03:52:23.481Z,100990.31
2022-11-26T03:54:51.990Z,100971.47
2022-11-26T03:57:20.530Z,100975.47
2022-11-26T03:59:49.090Z,101013.91
2022-11-26T04:02:17.833Z,100988.72
2022-11-26T04:04:46.268Z,100978.84
2022-11-26T04:07:16.123Z,100979.59
2022-11-26T04:09:44.866Z,100966.59
2022-11-26T04:12:21.370Z,100954.47
2022-11-26T04:14:50.561Z,100949.53
2022-11-26T04:17:27.922Z,100950.88
2022-11-26T04:20:07.354Z,100944.53
2022-11-26T04:22:37.341Z,100955.81
2022-11-26T04:25:08.578Z,100940.91
2022-11-26T04:27:37.169Z,100949.53
2022-11-26T04:30:06.845Z,100945.34
2022-11-26T04:32:35.461Z,100950.84
2022-11-26T04:35:05.552Z,100944.94
2022-11-26T04:37:34.292Z,100938.56
2022-11-26T04:40:06.052Z,100935.06
2022-11-26T04:42:37.848Z,100932.78
2022-11-26T04:45:07.047Z,100938.81
2022-11-26T04:47:42.734Z,100937.00
2022-11-26T04:50:12.995Z,100942.28
2022-11-26T04:52:42.883Z,100956.91
2022-11-26T04:55:13.003Z,100950.06
2022-11-26T04:57:41.486Z,100959.19
2022-11-26T05:00:13.163Z,100960.97
2022-11-26T05:02:44.177Z,100963.50
2022-11-26T05:05:15.258Z,100951.34
2022-11-26T05:07:43.992Z,100942.97
2022-11-26T05:10:15.019Z,100937.44
2022-11-26T05:12:43.433Z,100935.88
2022-11-26T05:15:19.072Z,100925.53
2022-11-26T05:17:47.451Z,100924.19
2022-11-26T05:20:24.404Z,100930.44
2022-11-26T05:22:54.281Z,100934.13
2022-11-26T05:25:26.749Z,100918.41
2022-11-26T05:27:57.151Z,100921.06
2022-11-26T05:30:26.756Z,100910.97
2022-11-26T05:32:57.079Z,100904.34
2022-11-26T05:35:31.853Z,100899.63
2022-11-26T05:38:04.447Z,100914.19
2022-11-26T05:40:35.726Z,100907.72
2022-11-26T05:43:05.428Z,100916.19
2022-11-26T05:45:35.340Z,100909.38
2022-11-26T05:48:04.113Z,100898.59
2022-11-26T05:50:39.733Z,100880.28
2022-11-26T05:53:10.421Z,100878.50
2022-11-26T05:55:45.009Z,100879.81
2022-11-26T05:58:14.552Z,100867.19
2022-11-26T06:00:43.000Z,100863.72
2022-11-26T06:03:13.511Z,100864.91
2022-11-26T06:05:44.283Z,100843.63
2022-11-26T06:08:13.808Z,100844.09
2022-11-26T06:10:45.341Z,100842.19
2022-11-26T06:13:14.567Z,100851.91
2022-11-26T06:15:43.081Z,100850.50
2022-11-26T06:18:14.356Z,100852.19
2022-11-26T06:20:43.830Z,100852.03
2022-11-26T06:23:14.812Z,100847.09
2022-11-26T06:25:45.145Z,100844.22
2022-11-26T06:28:13.665Z,100844.81
2022-11-26T06:30:45.853Z,100841.44
2022-11-26T06:33:14.456Z,100837.94
2022-11-26T06:35:43.060Z,100827.03
2022-11-26T06:38:11.753Z,100829.19
2022-11-26T06:40:41.137Z,100831.47
2022-11-26T06:43:17.791Z,100817.53
2022-11-26T06:45:57.862Z,100818.16
2022-11-26T06:48:27.062Z,100800.72
2022-11-26T06:51:05.941Z,100791.84
2022-11-26T06:53:36.866Z,100790.63
2022-11-26T06:56:07.642Z,100781.47
2022-11-26T06:58:46.911Z,100772.81
2022-11-26T07:01:18.826Z,100786.66
2022-11-26T07:03:47.823Z,100788.31
2022-11-26T07:06:21.298Z,100782.06
2022-11-26T07:08:59.220Z,100773.88
2022-11-26T07:11:42.919Z,100776.41
2022-11-26T07:14:14.398Z,100762.59
2022-11-26T07:16:43.052Z,100768.47
2022-11-26T07:19:15.263Z,100751.66
2022-11-26T07:21:43.963Z,100761.25
2022-11-26T07:24:12.559Z,100763.06
2022-11-26T07:26:44.577Z,100752.59
2022-11-26T07:29:15.594Z,100749.13
2022-11-26T07:31:44.268Z,100733.09
2022-11-26T07:34:12.809Z,100732.72
2022-11-26T07:36:43.653Z,100730.41
2022-11-26T07:39:13.982Z,100710.94
2022-11-26T07:41:43.792Z,100709.03
2022-11-26T07:44:20.886Z,100727.19
2022-11-26T07:46:49.392Z,100714.81
2022-11-26T07:49:17.777Z,100712.47
2022-11-26T07:51:46.521Z,100705.19
2022-11-26T07:54:16.993Z,100712.84
2022-11-26T07:56:46.219Z,100701.56
2022-11-26T07:59:14.602Z,100699.38
2022-11-26T08:01:49.665Z,100700.47
2022-11-26T08:04:18.798Z,100695.91
2022-11-26T08:06:50.315Z,100697.94
2022-11-26T08:09:19.029Z,100702.88
2022-11-26T08:11:47.484Z,100689.03
2022-11-26T08:14:18.242Z,100710.47
2022-11-26T08:16:49.330Z,100712.06
2022-11-26T08:19:20.108Z,100714.47
2022-11-26T08:21:48.483Z,100706.75
2022-11-26T08:24:20.550Z,100713.25
2022-11-26T08:26:48.977Z,100710.41
2022-11-26T08:29:18.882Z,100712.09
2022-11-26T08:31:50.138Z,100716.38
2022-11-26T08:34:19.431Z,100696.00
2022-11-26T08:36:48.889Z,100690.69
2022-11-26T08:39:19.496Z,100696.44
2022-11-26T08:41:52.526Z,100696.81
2022-11-26T08:44:22.079Z,100692.59
2022-11-26T08:46:52.292Z,100690.22
2022-11-26T08:49:20.825Z,100679.69
2022-11-26T08:51:51.132Z,100695.03
2022-11-26T08:54:19.530Z,100684.69
2022-11-26T08:56:54.168Z,100693.66
2022-11-26T08:59:25.625Z,100675.66
2022-11-26T09:01:55.611Z,100668.25
2022-11-26T09:04:24.122Z,100674.75
2022-11-26T09:06:52.619Z,100678.22
2022-11-26T09:09:22.307Z,100657.72
2022-11-26T09:11:55.460Z,100657.81
2022-11-26T09:14:27.775Z,100655.53
2022-11-26T09:16:59.668Z,100658.25
2022-11-26T09:19:29.333Z,100666.19
2022-11-26T09:21:58.133Z,100644.75
2022-11-26T09:24:28.332Z,100641.84
2022-11-26T09:27:07.816Z,100656.19
2022-11-26T09:29:45.089Z,100665.38
2022-11-26T09:32:24.336Z,100652.56
2022-11-26T09:34:56.926Z,100655.06
2022-11-26T09:37:25.240Z,100657.22
2022-11-26T09:39:55.822Z,100655.94
2022-11-26T09:42:40.309Z,100637.00
2022-11-26T09:45:27.571Z,100636.88
2022-11-26T09:47:58.297Z,100639.31
2022-11-26T09:50:32.912Z,100628.28
2022-11-26T09:53:17.790Z,100630.91
2022-11-26T09:55:51.344Z,100628.13
2022-11-26T09:58:27.337Z,100629.22
2022-11-26T10:00:58.213Z,100607.38
2022-11-26T10:03:35.121Z,100626.31
2022-11-26T10:06:09.899Z,100627.72
2022-11-26T10:09:04.933Z,100630.53
2022-11-26T10:11:42.155Z,100622.84
2022-11-26T10:14:37.790Z,100601.88
2022-11-26T10:17:23.169Z,100607.22
2022-11-26T10:20:07.961Z,100579.63
2022-11-26T10:22:40.831Z,100601.00
2022-11-26T10:25:20.142Z,100606.00
2022-11-26T10:27:51.602Z,100603.78
2022-11-26T10:30:22.712Z,100600.19
2022-11-26T10:32:53.468Z,100599.06
2022-11-26T10:35:27.964Z,100589.84
2022-11-26T10:37:58.152Z,100589.84
2022-11-26T10:40:29.425Z,100586.06
2022-11-26T10:43:05.579Z,100579.81
2022-11-26T10:45:39.512Z,100592.09
2022-11-26T10:48:24.765Z,100580.66
2022-11-26T10:51:02.227Z,100581.34
2022-11-26T10:53:33.930Z,100566.28
2022-11-26T10:56:06.031Z,100576.06
2022-11-26T10:58:41.362Z,100570.22
2022-11-26T11:01:14.661Z,100563.41
2022-11-26T11:04:08.537Z,100561.59
2022-11-26T11:06:42.523Z,100563.81
2022-11-26T11:09:27.290Z,100548.63
2022-11-26T11:12:20.970Z,100540.81
2022-11-26T11:14:51.313Z,100575.56
2022-11-26T11:17:41.865Z,100548.91
2022-11-26T11:20:31.561Z,100517.22
2022-11-26T11:23:06.005Z,100547.22
2022-11-26T11:25:36.902Z,100523.38
2022-11-26T11:28:12.410Z,100526.59
2022-11-26T11:30:43.636Z,100532.56
2022-11-26T11:33:20.826Z,100532.16
2022-11-26T11:36:05.491Z,100521.28
2022-11-26T11:38:49.243Z,100525.28
2022-11-26T11:41:29.914Z,100516.50
2022-11-26T11:44:03.500Z,100518.88
2022-11-26T11:46:58.402Z,100518.31
2022-11-26T11:49:40.908Z,100513.28
2022-11-26T11:52:21.231Z,100506.31
2022-11-26T11:55:05.691Z,100505.88
2022-11-26T11:57:59.912Z,100496.25
2022-11-26T12:00:41.008Z,100485.50
2022-11-26T12:03:43.697Z,100474.91
2022-11-26T12:06:34.412Z,100443.94
2022-11-26T12:09:15.618Z,100414.50
2022-11-26T12:11:55.713Z,100416.88
2022-11-26T12:14:30.262Z,100406.97
2022-11-26T12:17:06.632Z,100391.19
2022-11-26T12:19:52.600Z,100375.69
2022-11-26T12:22:25.917Z,100404.44
2022-11-26T12:25:00.555Z,100401.53
2022-11-26T12:27:38.193Z,100400.69
2022-11-26T12:30:14.567Z,100409.34
2022-11-26T12:32:51.078Z,100409.22
2022-11-26T12:35:34.148Z,100408.38
2022-11-26T12:38:08.228Z,100401.41
2022-11-26T12:40:43.275Z,100401.09
2022-11-26T12:43:19.386Z,100387.56
2022-11-26T12:45:54.880Z,100380.44
2022-11-26T12:48:38.836Z,100374.91
2022-11-26T12:51:28.247Z,100365.38
2022-11-26T12:54:08.655Z,100358.44
2022-11-26T12:56:45.274Z,100352.84
2022-11-26T12:59:24.273Z,100329.25
2022-11-26T13:01:52.921Z,100328.56
2022-11-26T13:04:37.703Z,100341.81
2022-11-26T13:07:22.345Z,100353.09
2022-11-26T13:10:05.235Z,100343.50
2022-11-26T13:12:46.294Z,100350.88
2022-11-26T13:15:26.642Z,100350.47
2022-11-26T13:17:56.535Z,100335.00
2022-11-26T13:20:44.806Z,100323.13
2022-11-26T13:23:22.361Z,100322.28
2022-11-26T13:26:11.814Z,100334.44
2022-11-26T13:28:55.437Z,100311.16
2022-11-26T13:31:47.510Z,100306.28
2022-11-26T13:34:33.444Z,100303.19
2022-11-26T13:37:27.324Z,100295.91
2022-11-26T13:40:34.842Z,100307.66
2022-11-26T13:43:21.341Z,100300.38
2022-11-26T13:46:18.997Z,100282.69
2022-11-26T13:49:01.361Z,100271.94
2022-11-26T13:51:37.366Z,100265.53
2022-11-26T13:54:14.320Z,100262.59
2022-11-26T13:56:46.779Z,100252.00
2022-11-26T13:59:29.238Z,100233.16
2022-11-26T14:01:58.227Z,100240.69
2022-11-26T14:04:58.569Z,100237.34
2022-11-26T14:07:28.632Z,100227.28
2022-11-26T14:09:58.054Z,100228.28
2022-11-26T14:13:07.617Z,100229.78
2022-11-26T14:15:57.572Z,100209.16
2022-11-26T14:19:03.257Z,100178.56
2022-11-26T14:21:33.288Z,100172.97
2022-11-26T14:24:08.106Z,100157.34
2022-11-26T14:26:39.197Z,100162.81
2022-11-26T14:29:13.900Z,100165.31
2022-11-26T14:31:50.485Z,100172.59
2022-11-26T14:34:26.375Z,100157.94
2022-11-26T14:36:59.590Z,100145.81
2022-11-26T14:39:31.866Z,100153.75
2022-11-26T14:42:05.946Z,100157.78
2022-11-26T14:44:36.180Z,100163.66
2022-11-26T14:47:12.683Z,100142.09
2022-11-26T14:49:45.144Z,100132.69
2022-11-26T14:52:22.615Z,100137.84
2022-11-26T14:54:54.975Z,100138.38
2022-11-26T14:57:26.999Z,100143.50
2022-11-26T15:00:00.447Z,100119.25
2022-11-26T15:02:30.951Z,100122.78
2022-11-26T15:05:05.585Z,100116.81
2022-11-26T15:07:36.247Z,100107.03
2022-11-26T15:10:18.105Z,100110.06
2022-11-26T15:12:49.316Z,100107.56
2022-11-26T15:15:21.029Z,100125.59
2022-11-26T15:17:54.964Z,100117.66
2022-11-26T15:20:32.955Z,100104.44
2022-11-26T15:23:07.115Z,100098.91
2022-11-26T15:25:38.835Z,100087.31
2022-11-26T15:28:17.695Z,100102.94
2022-11-26T15:30:57.395Z,100089.19
2022-11-26T15:33:36.628Z,100091.50
2022-11-26T15:36:17.560Z,100088.63
2022-11-26T15:39:06.250Z,100091.97
2022-11-26T15:41:42.759Z,100103.56
2022-11-26T15:44:22.022Z,100117.09
2022-11-26T15:46:54.089Z,100097.56
2022-11-26T15:49:25.090Z,100101.25
2022-11-26T15:51:58.574Z,100107.44
2022-11-26T15:55:11.577Z,100110.78
2022-11-26T15:57:42.517Z,100107.09
2022-11-26T16:00:23.275Z,100081.19
2022-11-26T16:02:54.376Z,100073.66
2022-11-26T16:05:29.119Z,100057.78
2022-11-26T16:08:08.089Z,100080.63
2022-11-26T16:10:39.870Z,100091.22
2022-11-26T16:13:23.881Z,100088.69
2022-11-26T16:16:01.694Z,100093.59
2022-11-26T16:18:38.256Z,100091.25
2022-11-26T16:21:18.341Z,100083.31
2022-11-26T16:23:55.580Z,100078.53
2022-11-26T16:26:26.275Z,100061.97
2022-11-26T16:28:55.693Z,100032.16
2022-11-26T16:31:24.507Z,100052.19
2022-11-26T16:33:53.525Z,100073.84
2022-11-26T16:36:25.079Z,100070.50
2022-11-26T16:38:54.783Z,100064.50
2022-11-26T16:41:25.133Z,100067.03
2022-11-26T16:43:56.014Z,100060.44
2022-11-26T16:46:29.207Z,100059.59
2022-11-26T16:48:58.209Z,100046.75
2022-11-26T16:51:27.197Z,100059.59
2022-11-26T16:53:58.591Z,100050.81
2022-11-26T16:56:37.755Z,100037.13
2022-11-26T16:59:20.009Z,100031.84
2022-11-26T17:01:48.874Z,100034.19
2022-11-26T17:04:19.368Z,100042.69
2022-11-26T17:06:48.371Z,100020.97
2022-11-26T17:09:21.175Z,100019.97
2022-11-26T17:11:53.209Z,100036.69
2022-11-26T17:14:24.074Z,100021.94
2022-11-26T17:16:53.779Z,100002.69
2022-11-26T17:19:23.628Z,99999.06
2022-11-26T17:21:52.191Z,100009.53
2022-11-26T17:24:31.895Z,100002.69
2022-11-26T17:27:04.557Z,99991.56
2022-11-26T17:29:42.876Z,99979.69
2022-11-26T17:32:13.669Z,99991.97
2022-11-26T17:34:42.955Z,99969.34
2022-11-26T17:37:15.899Z,99950.63
2022-11-26T17:39:44.411Z,99935.72
2022-11-26T17:42:14.457Z,99955.38
2022-11-26T17:44:43.958Z,99954.44
2022-11-26T17:47:17.920Z,99944.06
2022-11-26T17:49:49.416Z,99959.03
2022-11-26T17:52:18.872Z,99936.47
2022-11-26T17:54:50.162Z,99933.13
2022-11-26T17:57:23.315Z,99927.84
2022-11-26T17:59:51.814Z,99930.63
2022-11-26T18:02:20.447Z,99927.00
2022-11-26T18:04:48.810Z,99915.44
2022-11-26T18:07:19.613Z,99890.22
2022-11-26T18:09:48.843Z,99893.16
2022-11-26T18:12:24.603Z,99897.94
2022-11-26T18:14:57.053Z,99891.41
2022-11-26T18:17:26.361Z,99888.91
2022-11-26T18:19:54.854Z,99887.38
2022-11-26T18:22:25.982Z,99892.00
2022-11-26T18:24:57.020Z,99893.97
2022-11-26T18:27:28.716Z,99893.28
2022-11-26T18:29:58.833Z,99884.34
2022-11-26T18:32:27.283Z,99880.03
2022-11-26T18:34:55.863Z,99879.22
2022-11-26T18:37:24.259Z,99877.38
2022-11-26T18:39:52.779Z,99874.91
2022-11-26T18:42:36.515Z,99849.91
2022-11-26T18:45:09.291Z,99857.88
2022-11-26T18:47:43.883Z,99858.69
2022-11-26T18:50:14.956Z,99855.22
2022-11-26T18:52:44.493Z,99860.06
2022-11-26T18:55:16.400Z,99862.88
2022-11-26T18:57:44.950Z,99848.66
2022-11-26T19:00:16.372Z,99835.94
2022-11-26T19:02:45.121Z,99837.16
2022-11-26T19:05:14.002Z,99830.03
2022-11-26T19:07:42.493Z,99808.00
2022-11-26T19:10:12.541Z,99820.44
2022-11-26T19:12:41.121Z,99834.66
2022-11-26T19:15:10.270Z,99844.09
2022-11-26T19:17:41.521Z,99841.69
2022-11-26T19:20:10.476Z,99836.41
2022-11-26T19:22:38.830Z,99839.13
2022-11-26T19:25:09.559Z,99846.56
2022-11-26T19:27:39.157Z,99845.28
2022-11-26T19:30:09.950Z,99828.25
2022-11-26T19:32:38.972Z,99823.53
2022-11-26T19:35:11.195Z,99820.81
2022-11-26T19:37:39.707Z,99802.28
2022-11-26T19:40:09.325Z,99789.19
2022-11-26T19:42:37.946Z,99785.53
2022-11-26T19:45:08.214Z,99789.31
2022-11-26T19:47:37.140Z,99807.91
2022-11-26T19:50:07.177Z,99795.94
2022-11-26T19:52:38.195Z,99805.91
2022-11-26T19:55:07.889Z,99806.06
2022-11-26T19:57:37.492Z,99792.31
2022-11-26T20:00:07.429Z,99799.28
2022-11-26T20:02:37.398Z,99788.31
2022-11-26T20:05:08.422Z,99794.09
2022-11-26T20:07:38.362Z,99774.53
2022-11-26T20:10:09.491Z,99778.34
2022-11-26T20:12:37.903Z,99769.25
2022-11-26T20:15:07.270Z,99784.34
2022-11-26T20:17:36.609Z,99780.72
2022-11-26T20:20:07.006Z,99788.53
2022-11-26T20:22:37.707Z,99777.56
2022-11-26T20:25:09.602Z,99781.69
2022-11-26T20:27:40.158Z,99784.16
2022-11-26T20:30:11.349Z,99780.66
2022-11-26T20:32:40.922Z,99768.53
2022-11-26T20:35:13.944Z,99778.13
2022-11-26T20:37:42.475Z,99780.63
2022-11-26T20:40:12.655Z,99772.47
2022-11-26T20:42:45.474Z,99764.53
2022-11-26T20:45:14.806Z,99766.66
2022-11-26T20:47:45.519Z,99762.34
2022-11-26T20:50:15.091Z,99778.78
2022-11-26T20:52:45.141Z,99794.66
2022-11-26T20:55:15.021Z,99778.72
2022-11-26T20:57:43.869Z,99776.22
2022-11-26T21:00:17.935Z,99788.66
2022-11-26T21:02:48.649Z,99803.72
2022-11-26T21:05:17.668Z,99805.88
2022-11-26T21:07:46.284Z,99819.47
2022-11-26T21:10:17.686Z,99816.63
2022-11-26T21:12:48.219Z,99852.84
2022-11-26T21:15:20.114Z,99847.72
2022-11-26T21:17:48.826Z,99851.59
2022-11-26T21:20:21.892Z,99855.28
2022-11-26T21:22:51.384Z,99860.38
2022-11-26T21:25:21.441Z,99872.94
2022-11-26T21:27:55.489Z,99884.28
2022-11-26T21:30:25.852Z,99887.50
2022-11-26T21:32:55.986Z,99882.28
2022-11-26T21:35:25.754Z,99882.03
2022-11-26T21:37:56.121Z,99890.06
2022-11-26T21:40:26.705Z,99856.00
2022-11-26T21:42:56.533Z,99882.72
2022-11-26T21:45:28.024Z,99912.06
2022-11-26T21:47:57.703Z,99905.53
2022-11-26T21:50:27.907Z,99946.56
2022-11-26T21:52:56.464Z,99921.09
2022-11-26T21:55:30.012Z,99928.09
2022-11-26T21:57:59.515Z,99923.38
2022-11-26T22:00:29.263Z,99943.03
2022-11-26T22:02:58.141Z,99952.94
2022-11-26T22:05:26.605Z,99967.44
2022-11-26T22:07:55.522Z,99957.25
2022-11-26T22:10:24.111Z,99963.09
2022-11-26T22:12:53.983Z,99966.31
2022-11-26T22:15:22.734Z,99984.41
2022-11-26T22:17:51.415Z,99989.03
2022-11-26T22:20:20.117Z,99981.69
2022-11-26T22:22:48.713Z,99984.31
2022-11-26T22:25:17.481Z,99985.41
2022-11-26T22:27:46.114Z,99992.38
2022-11-26T22:30:17.863Z,100003.13
2022-11-26T22:32:46.325Z,100014.25
2022-11-26T22:35:15.955Z,100026.09
2022-11-26T22:37:44.518Z,100050.31
2022-11-26T22:40:14.080Z,100058.53
2022-11-26T22:42:42.604Z,100059.22
2022-11-26T22:45:12.589Z,100059.38
2022-11-26T22:47:42.700Z,100065.63
2022-11-26T22:50:12.170Z,100056.44
2022-11-26T22:52:40.628Z,100055.88
2022-11-26T22:55:11.960Z,100060.19
2022-11-26T22:57:42.460Z,100061.31
2022-11-26T23:00:35.324Z,100054.50
2022-11-26T23:03:05.366Z,100072.31
2022-11-26T23:05:38.342Z,100072.72
2022-11-26T23:08:07.181Z,100075.78
2022-11-26T23:10:36.263Z,100084.66
2022-11-26T23:13:05.990Z,100106.09
2022-11-26T23:15:34.580Z,100107.50
2022-11-26T23:18:04.637Z,100112.34
2022-11-26T23:20:33.280Z,100115.28
2022-11-26T23:23:01.743Z,100117.31
2022-11-26T23:25:30.315Z,100126.06
2022-11-26T23:27:58.959Z,100113.09
2022-11-26T23:30:27.569Z,100124.25
2022-11-26T23:32:56.361Z,100131.19
2022-11-26T23:35:26.460Z,100124.53
2022-11-26T23:37:56.340Z,100135.81
2022-11-26T23:40:24.690Z,100131.78
2022-11-26T23:42:53.030Z,100145.56
2022-11-26T23:45:21.469Z,100157.38
2022-11-26T23:47:49.950Z,100160.59
2022-11-26T23:50:18.769Z,100149.19
2022-11-26T23:52:49.643Z,100162.50
2022-11-26T23:55:18.279Z,100158.91
2022-11-26T23:57:47.911Z,100152.22
